Time;durP1;ratioP1;P1;durP2;ratioP2;P2;SDS_P1;SDS_P2;PMS_P1;PMS_P2;Temp;Humidity;BMP_temperature;BMP_pressure;BME280_temperature;BME280_humidity;BME280_pressure;Samples;Min_cycle;Max_cycle;Signal;HPM_P1;HPM_P2
2022/03/06 00:01:06;;;;;;;2.37;1.00;;;-6.50;99.90;;;;;;4858536;29;20469;-84
2022/03/06 00:03:34;;;;;;;3.30;1.10;;;-6.60;99.90;;;;;;4874320;29;20753;-84
2022/03/06 00:06:02;;;;;;;2.23;0.87;;;-6.50;99.90;;;;;;4874045;29;20529;-84
2022/03/06 00:08:30;;;;;;;2.47;0.98;;;-6.60;99.90;;;;;;4858796;29;20408;-84
2022/03/06 00:10:57;;;;;;;3.00;1.10;;;-6.60;99.90;;;;;;4874462;29;20416;-84
2022/03/06 00:13:25;;;;;;;3.20;0.80;;;-6.60;99.90;;;;;;4874109;29;20408;-84
2022/03/06 00:15:53;;;;;;;4.53;1.33;;;-6.60;99.90;;;;;;4858605;29;20424;-84
2022/03/06 00:18:20;;;;;;;3.00;1.10;;;-6.60;99.90;;;;;;4860082;29;20845;-84
2022/03/06 00:20:48;;;;;;;3.53;1.10;;;-6.60;99.90;;;;;;4874069;29;20416;-84
2022/03/06 00:23:16;;;;;;;4.60;1.20;;;-6.60;99.90;;;;;;4843403;29;20903;-84
2022/03/06 00:25:43;;;;;;;2.15;0.90;;;-6.60;99.90;;;;;;4873973;29;20404;-84
2022/03/06 00:28:11;;;;;;;2.87;0.97;;;-6.70;99.90;;;;;;4859638;29;20409;-84
2022/03/06 00:30:41;;;;;;;3.92;1.02;;;-6.70;99.90;;;;;;4873662;29;20404;-84
2022/03/06 00:33:09;;;;;;;3.55;1.00;;;-6.80;99.90;;;;;;4858377;29;20423;-84
2022/03/06 00:35:37;;;;;;;2.97;1.05;;;-6.90;99.90;;;;;;4843010;29;20462;-84
2022/03/06 00:38:04;;;;;;;3.78;0.88;;;-6.80;99.90;;;;;;4858767;29;20401;-84
2022/03/06 00:40:32;;;;;;;2.10;0.80;;;-6.80;99.90;;;;;;4873790;29;20400;-84
2022/03/06 00:43:00;;;;;;;2.50;0.88;;;-6.80;99.90;;;;;;4873776;29;20412;-85
2022/03/06 00:45:27;;;;;;;1.98;0.90;;;-6.80;99.90;;;;;;4873822;29;20401;-84
2022/03/06 00:47:55;;;;;;;2.38;0.90;;;-6.90;99.90;;;;;;4858313;29;20492;-84
2022/03/06 00:50:23;;;;;;;2.10;0.90;;;-6.90;99.90;;;;;;4858273;29;20964;-84
2022/03/06 00:52:52;;;;;;;2.58;1.00;;;-6.90;99.90;;;;;;4873605;29;20412;-84
2022/03/06 00:55:20;;;;;;;1.83;0.90;;;-6.90;99.90;;;;;;4873801;29;20491;-84
2022/03/06 00:57:48;;;;;;;2.97;1.02;;;-7.00;99.90;;;;;;4845774;29;20991;-84
2022/03/06 01:00:15;;;;;;;3.58;1.00;;;-7.00;99.90;;;;;;4877665;29;20409;-86
2022/03/06 01:02:43;;;;;;;3.05;0.98;;;-7.00;99.90;;;;;;4877554;29;20441;-85
2022/03/06 01:05:11;;;;;;;3.72;1.20;;;-7.00;99.90;;;;;;4846931;29;20892;-85
2022/03/06 01:07:38;;;;;;;4.25;1.10;;;-7.00;99.90;;;;;;4861942;29;20466;-85
2022/03/06 01:10:06;;;;;;;5.43;1.30;;;-7.00;99.90;;;;;;4877489;29;20472;-85
2022/03/06 01:12:34;;;;;;;3.85;1.30;;;-7.00;99.90;;;;;;4861671;29;20420;-85
2022/03/06 01:15:02;;;;;;;2.63;1.00;;;-7.00;99.90;;;;;;4861811;29;20765;-85
2022/03/06 01:17:30;;;;;;;2.83;1.00;;;-7.00;99.90;;;;;;4861459;29;21004;-84
2022/03/06 01:19:57;;;;;;;2.78;1.30;;;-7.00;99.90;;;;;;4862861;29;20396;-84
2022/03/06 01:22:25;;;;;;;2.80;1.13;;;-7.00;99.90;;;;;;4862845;29;20404;-85
2022/03/06 01:24:52;;;;;;;3.80;1.30;;;-7.00;99.90;;;;;;4863261;29;20400;-85
2022/03/06 01:27:20;;;;;;;4.55;1.30;;;-7.00;99.90;;;;;;4862802;29;20507;-84
2022/03/06 01:29:47;;;;;;;1.70;0.80;;;-7.10;99.90;;;;;;4877057;29;20471;-84
2022/03/06 01:32:15;;;;;;;4.27;1.30;;;-7.10;99.90;;;;;;4861654;29;20415;-84
2022/03/06 01:34:43;;;;;;;3.15;1.50;;;-7.10;99.90;;;;;;4876894;29;20408;-85
2022/03/06 01:37:10;;;;;;;4.03;1.30;;;-7.20;99.90;;;;;;4861341;29;20849;-84
2022/03/06 01:39:38;;;;;;;4.88;1.30;;;-7.20;99.90;;;;;;4876671;29;20413;-84
2022/03/06 01:42:05;;;;;;;3.22;1.40;;;-7.20;99.90;;;;;;4862548;29;20408;-84
2022/03/06 01:44:33;;;;;;;3.47;1.20;;;-7.30;99.90;;;;;;4877044;29;20436;-85
2022/03/06 01:47:01;;;;;;;3.42;1.38;;;-7.30;99.90;;;;;;4876877;29;20444;-85
2022/03/06 01:49:29;;;;;;;2.83;1.20;;;-7.30;99.90;;;;;;4861430;29;20440;-84
2022/03/06 01:51:57;;;;;;;3.83;1.50;;;-7.30;99.90;;;;;;4876928;29;20421;-84
2022/03/06 01:54:24;;;;;;;4.47;1.50;;;-7.30;99.90;;;;;;4876427;29;20485;-84
2022/03/06 01:56:51;;;;;;;3.63;1.20;;;-7.30;99.90;;;;;;4876339;29;20505;-84
2022/03/06 01:59:22;;;;;;;3.50;1.40;;;-7.30;99.90;;;;;;4876338;29;20415;-84
2022/03/06 02:01:50;;;;;;;3.92;1.27;;;-7.40;99.90;;;;;;4876281;29;20404;-84
2022/03/06 02:04:17;;;;;;;3.63;1.40;;;-7.30;99.90;;;;;;4876379;29;20416;-85
2022/03/06 02:06:45;;;;;;;2.90;1.27;;;-7.40;99.90;;;;;;4860851;29;20412;-84
2022/03/06 02:09:13;;;;;;;3.40;1.27;;;-7.40;99.90;;;;;;4861859;29;20499;-84
2022/03/06 02:11:41;;;;;;;3.63;1.40;;;-7.40;99.90;;;;;;4860907;29;20405;-85
2022/03/06 02:14:08;;;;;;;3.38;1.38;;;-7.30;99.90;;;;;;4860858;29;20447;-84
2022/03/06 02:16:36;;;;;;;3.83;1.33;;;-7.30;99.90;;;;;;4860661;29;20428;-84
2022/03/06 02:19:03;;;;;;;4.00;1.48;;;-7.40;99.90;;;;;;4876380;29;20888;-85
2022/03/06 02:21:31;;;;;;;3.70;1.50;;;-7.40;99.90;;;;;;4875982;29;20923;-84
2022/03/06 02:23:59;;;;;;;2.90;1.48;;;-7.40;99.90;;;;;;4845674;29;20461;-85
2022/03/06 02:26:26;;;;;;;4.43;1.77;;;-7.50;99.90;;;;;;4860339;29;20470;-84
2022/03/06 02:28:54;;;;;;;5.72;1.85;;;-7.40;99.90;;;;;;4875418;29;20476;-84
2022/03/06 02:31:22;;;;;;;6.43;2.60;;;-7.40;99.90;;;;;;4875725;29;20420;-85
2022/03/06 02:33:50;;;;;;;5.33;2.03;;;-7.30;99.90;;;;;;4875983;29;20896;-84
2022/03/06 02:36:17;;;;;;;6.55;2.35;;;-7.40;99.90;;;;;;4875786;29;20404;-85
2022/03/06 02:38:45;;;;;;;8.38;3.35;;;-7.40;99.90;;;;;;4856554;29;20460;-83
2022/03/06 02:41:12;;;;;;;6.28;2.80;;;-7.40;99.90;;;;;;4858592;29;20451;-83
2022/03/06 02:43:40;;;;;;;9.10;3.33;;;-7.30;99.90;;;;;;4860427;29;20401;-83
2022/03/06 02:46:08;;;;;;;8.65;3.10;;;-7.30;99.90;;;;;;4860011;29;20496;-83
2022/03/06 02:48:35;;;;;;;7.13;2.95;;;-7.30;99.90;;;;;;4860355;29;20522;-85
2022/03/06 02:51:03;;;;;;;6.45;2.90;;;-7.30;99.90;;;;;;4860163;29;20464;-86
2022/03/06 02:53:30;;;;;;;9.67;3.60;;;-7.30;99.90;;;;;;4860175;29;20409;-85
2022/03/06 02:55:58;;;;;;;9.05;4.15;;;-7.30;99.90;;;;;;4860256;29;20507;-86
2022/03/06 02:58:25;;;;;;;11.10;4.20;;;-7.30;99.90;;;;;;4859883;29;20500;-85
2022/03/06 03:00:53;;;;;;;9.07;4.00;;;-7.40;99.90;;;;;;4860967;29;20401;-85
2022/03/06 03:03:21;;;;;;;9.73;4.55;;;-7.40;99.90;;;;;;4859760;29;20405;-84
2022/03/06 03:05:48;;;;;;;13.15;5.18;;;-7.30;99.90;;;;;;4859858;29;20466;-85
2022/03/06 03:08:16;;;;;;;9.77;4.60;;;-7.30;99.90;;;;;;4859665;29;20431;-83
2022/03/06 03:10:43;;;;;;;10.65;5.20;;;-7.30;99.90;;;;;;4860921;29;20472;-83
2022/03/06 03:13:11;;;;;;;11.15;5.65;;;-7.20;99.90;;;;;;4860452;29;20473;-83
2022/03/06 03:15:39;;;;;;;9.82;5.25;;;-7.20;99.90;;;;;;4844466;29;20826;-84
2022/03/06 03:18:06;;;;;;;12.57;5.97;;;-7.30;99.90;;;;;;4859575;29;20427;-85
2022/03/06 03:20:33;;;;;;;10.57;5.25;;;-7.20;99.90;;;;;;4856646;29;20520;-83
2022/03/06 03:23:01;;;;;;;12.15;5.60;;;-7.10;99.90;;;;;;4856327;29;20414;-83
2022/03/06 03:25:29;;;;;;;9.80;5.10;;;-7.00;99.90;;;;;;4842177;29;20442;-84
2022/03/06 03:27:56;;;;;;;11.68;5.53;;;-7.10;99.90;;;;;;4841998;29;20414;-84
2022/03/06 03:30:27;;;;;;;13.05;5.90;;;-7.10;99.90;;;;;;4856192;29;20429;-85
2022/03/06 03:32:54;;;;;;;11.88;6.07;;;-7.20;99.90;;;;;;4842207;29;20445;-83
2022/03/06 03:35:22;;;;;;;14.50;6.32;;;-7.10;99.90;;;;;;4856170;29;20801;-84
2022/03/06 03:37:49;;;;;;;15.50;6.83;;;-7.10;99.90;;;;;;4840724;29;20449;-83
2022/03/06 03:40:17;;;;;;;15.48;7.35;;;-7.20;99.90;;;;;;4841873;29;20901;-83
2022/03/06 03:42:44;;;;;;;17.98;7.82;;;-7.20;99.90;;;;;;4858711;29;20405;-84
2022/03/06 03:45:12;;;;;;;15.83;7.10;;;-7.30;99.90;;;;;;4874399;29;20433;-83
2022/03/06 03:47:39;;;;;;;15.15;6.75;;;-7.20;99.90;;;;;;4859107;29;20400;-84
2022/03/06 03:50:08;;;;;;;14.05;6.78;;;-7.20;99.90;;;;;;4860037;29;20409;-83
2022/03/06 03:52:35;;;;;;;18.27;7.60;;;-7.10;99.90;;;;;;4874273;29;20427;-85
2022/03/06 03:55:04;;;;;;;14.10;6.60;;;-7.10;99.90;;;;;;4874324;29;20805;-84
2022/03/06 03:57:31;;;;;;;14.88;6.55;;;-7.10;99.90;;;;;;4858824;29;20503;-85
2022/03/06 03:59:59;;;;;;;14.18;6.90;;;-7.10;99.90;;;;;;4874164;29;20424;-85
2022/03/06 04:02:26;;;;;;;17.25;7.40;;;-7.10;99.90;;;;;;4858509;29;20408;-85
2022/03/06 04:04:54;;;;;;;14.98;7.25;;;-7.00;99.90;;;;;;4874334;29;20451;-85
2022/03/06 04:07:21;;;;;;;14.07;6.80;;;-7.10;99.90;;;;;;4858856;29;20505;-85
2022/03/06 04:09:49;;;;;;;14.63;6.47;;;-7.10;99.90;;;;;;4858742;29;20416;-85
2022/03/06 04:12:16;;;;;;;14.90;6.75;;;-7.20;99.90;;;;;;4859903;29;20464;-85
2022/03/06 04:14:43;;;;;;;16.30;7.05;;;-7.20;99.90;;;;;;4874146;29;20407;-83
2022/03/06 04:17:11;;;;;;;14.50;6.60;;;-7.20;99.90;;;;;;4858780;29;20420;-83
2022/03/06 04:19:39;;;;;;;16.30;6.90;;;-7.20;99.90;;;;;;4859799;29;20468;-84
2022/03/06 04:22:06;;;;;;;15.82;7.18;;;-7.10;99.90;;;;;;4874164;29;20401;-83
2022/03/06 04:24:34;;;;;;;13.52;7.53;;;-7.10;99.90;;;;;;4858535;29;20397;-84
2022/03/06 04:27:01;;;;;;;14.77;7.03;;;-7.10;99.90;;;;;;4859494;29;20405;-83
2022/03/06 04:29:30;;;;;;;15.40;7.10;;;-7.10;99.90;;;;;;4855693;29;20449;-84
2022/03/06 04:31:58;;;;;;;15.02;6.88;;;-7.10;99.90;;;;;;4840243;29;20425;-84
2022/03/06 04:34:25;;;;;;;16.35;8.02;;;-7.10;99.90;;;;;;4845574;29;20410;-83
2022/03/06 04:36:52;;;;;;;16.63;8.07;;;-7.10;99.90;;;;;;4839753;29;20418;-83
2022/03/06 04:39:20;;;;;;;15.13;7.25;;;-7.10;99.90;;;;;;4825013;29;20455;-84
2022/03/06 04:41:48;;;;;;;16.02;7.50;;;-7.10;99.90;;;;;;4841058;29;20422;-84
2022/03/06 04:44:15;;;;;;;13.52;6.95;;;-7.10;99.90;;;;;;4839772;29;20966;-84
2022/03/06 04:46:43;;;;;;;14.27;6.68;;;-7.10;99.90;;;;;;4840867;29;20402;-84
2022/03/06 04:49:10;;;;;;;15.82;6.97;;;-7.10;99.90;;;;;;4839728;29;20399;-83
2022/03/06 04:51:38;;;;;;;14.00;6.50;;;-7.10;99.90;;;;;;4840865;29;20406;-83
2022/03/06 04:54:07;;;;;;;14.80;6.35;;;-7.20;99.90;;;;;;4841092;29;20398;-84
2022/03/06 04:56:35;;;;;;;13.52;6.35;;;-7.20;99.90;;;;;;4840327;29;20411;-84
2022/03/06 04:59:03;;;;;;;13.93;6.10;;;-7.10;99.90;;;;;;4824736;29;20418;-84
2022/03/06 05:01:31;;;;;;;13.07;5.68;;;-7.00;99.90;;;;;;4839833;29;20489;-84
2022/03/06 05:04:01;;;;;;;13.88;6.28;;;-7.00;99.90;;;;;;4839666;29;20414;-84
2022/03/06 05:06:28;;;;;;;12.35;5.40;;;-7.00;99.90;;;;;;4831922;29;20822;-84
2022/03/06 05:08:56;;;;;;;12.98;5.25;;;-7.00;99.90;;;;;;4854924;29;20402;-84
2022/03/06 05:11:24;;;;;;;12.98;5.28;;;-7.00;99.90;;;;;;4840721;29;20414;-84
2022/03/06 05:13:51;;;;;;;12.02;5.47;;;-7.10;99.90;;;;;;4855046;29;20414;-84
2022/03/06 05:16:19;;;;;;;11.87;5.40;;;-7.00;99.90;;;;;;4839622;29;20433;-83
2022/03/06 05:18:46;;;;;;;10.30;4.78;;;-6.90;99.90;;;;;;4840904;29;20500;-84
2022/03/06 05:21:14;;;;;;;11.53;4.60;;;-6.90;99.90;;;;;;4839782;29;20466;-84
2022/03/06 05:23:42;;;;;;;14.00;5.43;;;-6.90;99.90;;;;;;4854909;29;20851;-84
2022/03/06 05:26:09;;;;;;;11.48;5.00;;;-6.80;99.90;;;;;;4854802;29;20413;-84
2022/03/06 05:28:37;;;;;;;11.63;4.97;;;-6.80;99.90;;;;;;4866760;29;20409;-84
2022/03/06 05:31:06;;;;;;;10.45;4.78;;;-6.70;99.90;;;;;;4857846;29;20476;-83
2022/03/06 05:33:34;;;;;;;12.37;5.00;;;-6.70;99.90;;;;;;4857875;29;20417;-84
2022/03/06 05:36:03;;;;;;;11.57;4.60;;;-6.60;99.90;;;;;;4858052;29;20464;-84
2022/03/06 05:38:30;;;;;;;9.07;4.43;;;-6.60;99.90;;;;;;4873059;29;20923;-84
2022/03/06 05:40:58;;;;;;;9.73;4.30;;;-6.50;99.90;;;;;;4857877;29;20425;-84
2022/03/06 05:43:25;;;;;;;10.15;4.63;;;-6.40;99.90;;;;;;4875230;29;20432;-83
2022/03/06 05:45:53;;;;;;;12.95;4.82;;;-6.40;99.90;;;;;;4853894;29;20417;-83
2022/03/06 05:48:21;;;;;;;9.45;4.05;;;-6.40;99.90;;;;;;4856446;29;20942;-83
2022/03/06 05:50:49;;;;;;;8.57;4.38;;;-6.30;99.90;;;;;;4830705;29;20442;-84
2022/03/06 05:53:16;;;;;;;10.27;4.45;;;-6.30;99.90;;;;;;4875578;29;20532;-86
2022/03/06 05:55:44;;;;;;;11.57;4.18;;;-6.30;99.90;;;;;;4876395;29;20487;-83
2022/03/06 05:58:11;;;;;;;8.80;3.88;;;-6.10;99.90;;;;;;4860869;29;20469;-83
2022/03/06 06:00:39;;;;;;;8.97;4.23;;;-6.00;99.90;;;;;;4860896;29;20408;-84
2022/03/06 06:03:06;;;;;;;9.77;3.65;;;-6.00;99.90;;;;;;4862069;29;20408;-84
2022/03/06 06:05:34;;;;;;;8.47;3.67;;;-5.90;99.90;;;;;;4860732;29;20492;-84
2022/03/06 06:08:02;;;;;;;7.72;3.45;;;-5.80;99.90;;;;;;4861871;29;20412;-83
2022/03/06 06:10:29;;;;;;;8.13;3.90;;;-5.70;99.90;;;;;;4860801;29;20497;-85
2022/03/06 06:12:57;;;;;;;8.82;4.07;;;-5.70;99.90;;;;;;4860653;29;20430;-85
2022/03/06 06:15:24;;;;;;;8.98;3.75;;;-5.70;99.90;;;;;;4845730;29;20844;-84
2022/03/06 06:17:52;;;;;;;9.07;3.58;;;-5.60;99.90;;;;;;4860620;29;20420;-84
2022/03/06 06:20:19;;;;;;;7.07;3.50;;;-5.60;99.90;;;;;;4860749;29;20433;-84
2022/03/06 06:22:48;;;;;;;10.57;4.25;;;-5.60;99.90;;;;;;4845234;29;20824;-85
2022/03/06 06:25:15;;;;;;;8.18;3.78;;;-5.50;99.90;;;;;;4845397;29;20412;-84
2022/03/06 06:27:43;;;;;;;8.33;3.60;;;-5.50;99.90;;;;;;4861601;29;20416;-85
2022/03/06 06:30:11;;;;;;;9.10;3.60;;;-5.40;99.90;;;;;;4860377;29;20915;-85
2022/03/06 06:32:38;;;;;;;8.32;3.60;;;-5.40;99.90;;;;;;4856879;29;20902;-84
2022/03/06 06:35:06;;;;;;;7.90;3.97;;;-5.30;99.90;;;;;;4830449;29;20417;-85
2022/03/06 06:37:33;;;;;;;9.38;3.40;;;-5.30;99.90;;;;;;4858649;29;20424;-85
2022/03/06 06:40:02;;;;;;;8.13;3.55;;;-5.20;99.90;;;;;;4861565;29;20408;-85
2022/03/06 06:42:29;;;;;;;9.55;3.75;;;-5.30;99.90;;;;;;4860338;29;20408;-85
2022/03/06 06:44:57;;;;;;;9.02;3.78;;;-5.20;99.90;;;;;;4860246;29;20483;-85
2022/03/06 06:47:25;;;;;;;8.65;3.35;;;-5.20;99.90;;;;;;4860217;29;20456;-85
2022/03/06 06:49:52;;;;;;;7.67;3.77;;;-5.20;99.90;;;;;;4851548;29;20467;-84
2022/03/06 06:52:20;;;;;;;8.82;3.38;;;-5.10;99.90;;;;;;4857459;29;20417;-84
2022/03/06 06:54:48;;;;;;;6.65;3.10;;;-5.10;99.90;;;;;;4844154;29;20414;-84
2022/03/06 06:57:15;;;;;;;10.80;4.07;;;-5.00;99.90;;;;;;4832456;29;20418;-85
2022/03/06 06:59:42;;;;;;;8.57;3.50;;;-5.00;99.90;;;;;;4841389;29;20422;-84
2022/03/06 07:02:10;;;;;;;9.20;3.17;;;-4.90;99.90;;;;;;4826449;29;20406;-85
2022/03/06 07:04:38;;;;;;;11.73;3.50;;;-4.90;99.90;;;;;;4841328;29;20522;-85
2022/03/06 07:07:05;;;;;;;10.00;3.55;;;-4.80;99.90;;;;;;4857621;29;20405;-85
2022/03/06 07:09:33;;;;;;;7.45;3.42;;;-4.70;99.90;;;;;;4859843;29;20432;-85
2022/03/06 07:12:00;;;;;;;7.18;3.30;;;-4.70;99.90;;;;;;4860249;29;20443;-85
2022/03/06 07:14:29;;;;;;;9.52;3.67;;;-4.70;99.90;;;;;;4848510;29;20422;-85
2022/03/06 07:16:56;;;;;;;8.32;3.63;;;-4.60;99.90;;;;;;4842428;29;20459;-83
2022/03/06 07:19:24;;;;;;;10.80;3.40;;;-4.60;99.90;;;;;;4858989;29;21005;-85
2022/03/06 07:21:51;;;;;;;8.88;3.88;;;-4.60;99.90;;;;;;4859993;29;20492;-84
2022/03/06 07:24:19;;;;;;;9.95;4.18;;;-4.60;99.90;;;;;;4859453;29;20415;-85
2022/03/06 07:26:47;;;;;;;10.43;4.10;;;-4.60;99.90;;;;;;4859661;29;20440;-85
2022/03/06 07:29:14;;;;;;;9.30;3.90;;;-4.60;99.90;;;;;;4874865;29;20424;-85
2022/03/06 07:31:41;;;;;;;10.80;4.00;;;-4.50;99.90;;;;;;4874834;29;20409;-84
2022/03/06 07:34:09;;;;;;;9.60;4.20;;;-4.50;99.90;;;;;;4860132;29;20416;-84
2022/03/06 07:36:37;;;;;;;11.48;4.07;;;-4.40;99.90;;;;;;4859360;29;20404;-85
2022/03/06 07:39:05;;;;;;;9.35;4.38;;;-4.30;99.90;;;;;;4874628;29;20779;-85
2022/03/06 07:41:32;;;;;;;8.82;3.72;;;-4.30;99.90;;;;;;4864227;29;20437;-85
2022/03/06 07:44:00;;;;;;;9.27;3.75;;;-4.30;99.90;;;;;;4856189;29;20406;-85
2022/03/06 07:46:28;;;;;;;9.27;4.05;;;-4.20;99.90;;;;;;4840559;29;20909;-85
2022/03/06 07:48:57;;;;;;;8.97;3.83;;;-4.30;99.90;;;;;;4841930;29;20410;-86
2022/03/06 07:51:25;;;;;;;9.75;4.40;;;-4.20;99.90;;;;;;4858786;29;20758;-85
2022/03/06 07:53:53;;;;;;;8.73;3.80;;;-4.30;99.90;;;;;;4858861;29;20467;-86
2022/03/06 07:56:20;;;;;;;11.55;3.90;;;-4.30;99.90;;;;;;4860099;29;20465;-85
2022/03/06 07:58:48;;;;;;;10.98;4.15;;;-4.10;99.90;;;;;;4858915;29;20504;-86
2022/03/06 08:01:15;;;;;;;9.25;3.83;;;-4.10;99.90;;;;;;4858777;29;20405;-86
2022/03/06 08:03:43;;;;;;;26.40;11.40;;;-4.10;99.90;;;;;;4858671;29;21014;-85
2022/03/06 08:06:10;;;;;;;7.45;3.60;;;-4.10;99.90;;;;;;4858659;29;20409;-86
2022/03/06 08:08:38;;;;;;;8.18;3.60;;;-4.10;99.90;;;;;;4858314;29;20416;-86
2022/03/06 08:11:05;;;;;;;10.30;4.13;;;-4.00;99.90;;;;;;4860116;29;20527;-86
2022/03/06 08:13:33;;;;;;;8.75;3.50;;;-4.00;99.90;;;;;;4858562;29;20420;-86
2022/03/06 08:16:01;;;;;;;8.60;3.20;;;-3.90;99.90;;;;;;4858704;29;20405;-86
2022/03/06 08:18:28;;;;;;;9.80;3.80;;;-3.80;99.90;;;;;;4858597;29;20420;-87
2022/03/06 08:20:56;;;;;;;9.00;4.00;;;-3.80;99.90;;;;;;4858634;29;20451;-86
2022/03/06 08:23:24;;;;;;;9.25;3.72;;;-3.70;99.90;;;;;;4872815;29;20420;-86
2022/03/06 08:25:52;;;;;;;8.63;3.63;;;-3.70;99.90;;;;;;4856024;29;20408;-85
2022/03/06 08:28:20;;;;;;;7.90;3.67;;;-3.70;99.90;;;;;;4858324;29;20999;-83
2022/03/06 08:30:47;;;;;;;9.82;4.20;;;-3.60;99.90;;;;;;4874080;29;20772;-87
2022/03/06 08:33:15;;;;;;;9.40;4.18;;;-3.70;99.90;;;;;;4858273;29;20465;-85
2022/03/06 08:35:43;;;;;;;11.25;4.10;;;-3.70;99.90;;;;;;4858507;29;20408;-85
2022/03/06 08:38:16;;;;;;;11.63;4.15;;;-3.60;99.90;;;;;;4873742;29;20428;-85
2022/03/06 08:40:43;;;;;;;11.35;4.55;;;-3.50;99.90;;;;;;4862410;29;20417;-85
2022/03/06 08:43:11;;;;;;;10.70;3.80;;;-3.50;99.90;;;;;;4845645;29;20633;-87
2022/03/06 08:45:39;;;;;;;10.05;3.97;;;-3.50;99.90;;;;;;4871904;29;20413;-87
2022/03/06 08:48:07;;;;;;;11.57;4.25;;;-3.40;99.90;;;;;;4873077;29;20401;-85
2022/03/06 08:50:34;;;;;;;10.27;4.45;;;-3.40;99.90;;;;;;4857537;29;20464;-86
2022/03/06 08:53:02;;;;;;;11.68;4.30;;;-3.40;99.90;;;;;;4857646;29;20793;-86
2022/03/06 08:55:30;;;;;;;8.25;3.75;;;-3.40;99.90;;;;;;4872924;29;20416;-85
2022/03/06 08:58:00;;;;;;;11.30;4.22;;;-3.40;99.90;;;;;;4857994;29;20507;-87
2022/03/06 09:00:28;;;;;;;10.45;4.53;;;-3.30;99.90;;;;;;4858409;29;20980;-86
2022/03/06 09:02:55;;;;;;;9.20;4.43;;;-3.30;99.90;;;;;;4844875;29;20997;-85
2022/03/06 09:05:23;;;;;;;9.63;4.43;;;-3.20;99.90;;;;;;4854963;29;20410;-86
2022/03/06 09:07:51;;;;;;;12.88;5.00;;;-3.10;99.90;;;;;;4840886;29;20398;-87
2022/03/06 09:10:19;;;;;;;11.57;4.43;;;-3.10;99.90;;;;;;4841285;29;20438;-85
2022/03/06 09:12:46;;;;;;;10.13;4.30;;;-3.10;99.90;;;;;;4839924;29;20399;-85
2022/03/06 09:15:14;;;;;;;11.27;4.18;;;-3.00;99.90;;;;;;4855982;29;20416;-84
2022/03/06 09:17:42;;;;;;;9.75;4.10;;;-2.90;99.90;;;;;;4859203;29;20405;-87
2022/03/06 09:20:12;;;;;;;12.10;4.32;;;-2.80;99.90;;;;;;4876954;29;20428;-85
2022/03/06 09:22:39;;;;;;;12.68;4.78;;;-2.80;99.90;;;;;;4861953;29;20910;-85
2022/03/06 09:25:07;;;;;;;9.75;3.67;;;-2.80;99.90;;;;;;4861220;29;20491;-88
2022/03/06 09:27:35;;;;;;;8.90;3.75;;;-2.70;99.90;;;;;;4845190;29;20449;-87
2022/03/06 09:30:04;;;;;;;9.73;3.97;;;-2.70;99.90;;;;;;4856303;29;20940;-86
2022/03/06 09:32:32;;;;;;;9.15;4.13;;;-2.60;99.90;;;;;;4858194;29;20430;-86
2022/03/06 09:35:00;;;;;;;10.73;4.43;;;-2.60;99.90;;;;;;4828126;29;20418;-85
2022/03/06 09:37:28;;;;;;;9.85;3.90;;;-2.50;99.90;;;;;;4858215;29;20479;-86
2022/03/06 09:39:55;;;;;;;9.45;4.05;;;-2.50;99.90;;;;;;4844109;29;20429;-86
2022/03/06 09:42:23;;;;;;;11.00;4.20;;;-2.40;99.90;;;;;;4857547;29;20410;-86
2022/03/06 09:44:51;;;;;;;11.25;4.10;;;-2.40;99.90;;;;;;4842892;29;20410;-86
2022/03/06 09:47:18;;;;;;;12.43;4.25;;;-2.20;99.90;;;;;;4843117;29;20405;-86
2022/03/06 09:49:47;;;;;;;9.13;4.53;;;-2.10;99.90;;;;;;4858299;29;20790;-86
2022/03/06 09:52:14;;;;;;;10.52;4.15;;;-2.10;99.90;;;;;;4858432;29;20938;-86
2022/03/06 09:54:43;;;;;;;9.47;4.00;;;-2.10;99.90;;;;;;4842653;29;20438;-86
2022/03/06 09:57:17;;;;;;;10.85;4.22;;;-1.90;99.90;;;;;;4865144;29;20924;-86
2022/03/06 09:59:47;;;;;;;10.18;4.45;;;-1.90;99.90;;;;;;4861456;29;20440;-86
2022/03/06 10:02:16;;;;;;;12.00;4.00;;;-1.80;99.90;;;;;;4860532;29;20413;-86
2022/03/06 10:04:46;;;;;;;10.77;3.90;;;-1.80;99.90;;;;;;4860725;29;20507;-87
2022/03/06 10:07:19;;;;;;;7.50;3.83;;;-1.80;99.90;;;;;;4857843;29;20408;-86
2022/03/06 10:09:48;;;;;;;10.73;4.00;;;-1.70;99.90;;;;;;4860057;29;20517;-87
2022/03/06 10:12:29;;;;;;;8.85;3.72;;;-1.60;99.90;;;;;;4861973;29;20413;-87
2022/03/06 10:14:59;;;;;;;8.40;4.22;;;-1.60;99.90;;;;;;4862263;29;20884;-88
2022/03/06 10:17:28;;;;;;;9.50;4.03;;;-1.60;99.90;;;;;;4876051;29;20424;-84
2022/03/06 10:20:10;;;;;;;8.48;4.00;;;-1.60;99.90;;;;;;4853867;29;20908;-88
2022/03/06 10:22:40;;;;;;;9.05;3.90;;;-1.60;99.90;;;;;;4860100;29;20401;-85
2022/03/06 10:25:16;;;;;;;10.03;4.53;;;-1.50;99.90;;;;;;4861949;29;20405;-86
2022/03/06 10:27:57;;;;;;;9.13;3.70;;;-1.60;99.90;;;;;;4847212;29;20426;-87
2022/03/06 10:30:37;;;;;;;8.57;3.85;;;-1.40;99.90;;;;;;4851077;29;20910;-87
2022/03/06 10:33:11;;;;;;;9.15;4.05;;;-1.30;99.90;;;;;;4842191;29;20445;-86
2022/03/06 10:35:41;;;;;;;8.90;3.80;;;-1.30;99.90;;;;;;4842880;29;20527;-87
2022/03/06 10:38:28;;;;;;;8.10;3.23;;;-1.20;99.90;;;;;;4858583;29;20889;-86
2022/03/06 10:41:00;;;;;;;9.00;3.83;;;-1.10;99.90;;;;;;4861523;29;20959;-87
2022/03/06 10:43:32;;;;;;;8.90;3.50;;;-1.10;99.90;;;;;;4870125;29;20437;-88
2022/03/06 10:46:16;;;;;;;7.72;3.75;;;-1.10;99.90;;;;;;4866574;29;20422;-88
2022/03/06 10:48:55;;;;;;;9.43;3.33;;;-1.00;99.90;;;;;;4841858;29;20538;-87
2022/03/06 10:51:23;;;;;;;10.20;3.97;;;-1.00;99.90;;;;;;4841986;29;20429;-88
2022/03/06 10:54:01;;;;;;;8.70;2.88;;;-0.90;99.90;;;;;;4841680;29;20403;-87
2022/03/06 10:56:32;;;;;;;8.70;3.22;;;-0.80;99.90;;;;;;4849365;29;20934;-87
2022/03/06 10:59:03;;;;;;;7.30;2.97;;;-0.80;99.90;;;;;;4832421;29;20714;-87
2022/03/06 11:01:38;;;;;;;7.45;3.20;;;-0.90;99.90;;;;;;4846954;29;20409;-87
2022/03/06 11:04:06;;;;;;;8.35;3.15;;;-0.90;99.90;;;;;;4844817;29;20423;-86
2022/03/06 11:06:40;;;;;;;8.73;3.03;;;-0.90;99.90;;;;;;4866627;29;20498;-88
2022/03/06 11:09:15;;;;;;;9.32;3.13;;;-0.70;99.90;;;;;;4856970;29;20981;-88
2022/03/06 11:11:46;;;;;;;12.35;3.58;;;-0.60;99.90;;;;;;4858003;29;20887;-88
2022/03/06 11:14:14;;;;;;;8.30;3.25;;;-0.50;99.90;;;;;;4859529;29;20449;-88
2022/03/06 11:16:42;;;;;;;9.93;3.20;;;-0.50;99.90;;;;;;4842953;29;20509;-88
2022/03/06 11:19:11;;;;;;;5.93;2.80;;;-0.50;99.90;;;;;;4833563;29;20861;-89
2022/03/06 11:21:42;;;;;;;8.18;3.00;;;-0.50;99.90;;;;;;4859446;29;20438;-89
2022/03/06 11:24:28;;;;;;;6.80;2.92;;;-0.40;99.90;;;;;;4860620;29;20944;-89
2022/03/06 11:27:16;;;;;;;8.13;2.63;;;-0.30;99.90;;;;;;4841392;29;20410;-87
2022/03/06 11:30:06;;;;;;;8.10;2.72;;;-0.30;99.90;;;;;;4856970;29;20781;-88
2022/03/06 11:32:37;;;;;;;6.30;2.75;;;-0.30;99.90;;;;;;4856733;29;20423;-87
2022/03/06 11:35:07;;;;;;;7.85;2.78;;;-0.40;99.90;;;;;;4855203;29;20450;-86
2022/03/06 11:37:56;;;;;;;6.85;2.90;;;-0.40;99.90;;;;;;4848110;29;21009;-86
2022/03/06 11:41:09;;;;;;;9.02;2.92;;;-0.40;99.90;;;;;;4857476;29;20413;-89
2022/03/06 11:43:47;;;;;;;8.30;3.10;;;-0.40;99.90;;;;;;4836593;29;20448;-86
2022/03/06 11:46:28;;;;;;;7.88;2.85;;;-0.40;99.90;;;;;;4859650;29;20515;-87
2022/03/06 11:49:03;;;;;;;9.38;3.42;;;-0.40;99.90;;;;;;4869710;29;20420;-88
2022/03/06 11:51:33;;;;;;;7.85;2.88;;;-0.40;99.90;;;;;;4851826;29;20493;-89
2022/03/06 11:54:14;;;;;;;7.55;2.72;;;-0.40;99.90;;;;;;4841084;29;20418;-89
2022/03/06 11:56:45;;;;;;;9.48;2.92;;;-0.40;99.90;;;;;;4841126;29;20414;-88
2022/03/06 11:59:32;;;;;;;7.90;3.00;;;-0.40;99.90;;;;;;4840862;29;20517;-89
2022/03/06 12:02:07;;;;;;;7.85;2.72;;;-0.40;99.90;;;;;;4841738;29;20420;-88
2022/03/06 12:04:39;;;;;;;10.35;3.80;;;-0.40;99.90;;;;;;4858620;29;20423;-88
2022/03/06 12:07:09;;;;;;;7.85;2.83;;;-0.40;99.90;;;;;;4859512;29;20520;-87
2022/03/06 12:09:39;;;;;;;8.13;2.77;;;-0.30;99.90;;;;;;4861309;29;20524;-88
2022/03/06 12:12:18;;;;;;;5.10;2.50;;;-0.20;99.90;;;;;;4859096;29;20821;-88
2022/03/06 12:14:50;;;;;;;8.47;2.67;;;-0.30;99.90;;;;;;4858972;29;20439;-88
2022/03/06 12:17:20;;;;;;;8.80;3.03;;;-0.40;99.90;;;;;;4858977;29;20539;-88
2022/03/06 12:19:54;;;;;;;5.68;2.50;;;-0.30;99.90;;;;;;4858837;29;20512;-88
2022/03/06 12:22:33;;;;;;;7.05;2.80;;;-0.30;99.90;;;;;;4860099;29;20479;-87
2022/03/06 12:25:04;;;;;;;5.10;2.47;;;-0.30;99.90;;;;;;4856625;29;20425;-87
2022/03/06 12:27:32;;;;;;;9.25;2.78;;;-0.30;99.90;;;;;;4860695;29;20410;-87
2022/03/06 12:30:07;;;;;;;6.47;2.72;;;-0.30;99.90;;;;;;4838503;29;20443;-86
2022/03/06 12:32:37;;;;;;;5.20;2.63;;;-0.30;99.90;;;;;;4848270;29;20410;-88
2022/03/06 12:35:07;;;;;;;6.15;2.53;;;-0.30;99.90;;;;;;4847246;29;20492;-88
2022/03/06 12:38:01;;;;;;;5.32;2.00;;;-0.30;99.90;;;;;;4857756;29;20421;-87
2022/03/06 12:40:32;;;;;;;7.97;2.53;;;-0.30;99.90;;;;;;4869337;29;20427;-87
2022/03/06 12:42:59;;;;;;;5.93;2.40;;;-0.20;99.90;;;;;;4859210;29;20510;-87
2022/03/06 12:45:28;;;;;;;7.57;2.47;;;-0.30;99.90;;;;;;4865610;29;20436;-85
2022/03/06 12:47:56;;;;;;;7.55;2.80;;;-0.30;99.90;;;;;;4858613;29;20407;-88
2022/03/06 12:50:27;;;;;;;6.82;2.40;;;-0.30;99.90;;;;;;4858682;29;20420;-87
2022/03/06 12:52:56;;;;;;;6.45;2.33;;;-0.20;99.90;;;;;;4860136;29;20516;-88